createdAt,value
2023-04-17T00:01:20.906Z,70.40
2023-04-17T00:03:47.791Z,70.40
2023-04-17T00:06:16.262Z,70.30
2023-04-17T00:08:43.541Z,70.30
2023-04-17T00:11:10.247Z,70.30
2023-04-17T00:13:37.136Z,70.20
2023-04-17T00:16:03.852Z,70.30
2023-04-17T00:18:30.514Z,70.30
2023-04-17T00:20:57.303Z,70.20
2023-04-17T00:23:25.620Z,70.20
2023-04-17T00:25:52.304Z,70.10
2023-04-17T00:28:19.321Z,70.10
2023-04-17T00:30:46.653Z,70.10
2023-04-17T00:33:13.394Z,70.00
2023-04-17T00:35:40.221Z,70.00
2023-04-17T00:38:09.062Z,70.00
2023-04-17T00:40:36.185Z,70.00
2023-04-17T00:43:06.479Z,70.00
2023-04-17T00:45:34.374Z,70.00
2023-04-17T00:48:03.463Z,70.00
2023-04-17T00:50:31.080Z,70.00
2023-04-17T00:52:58.543Z,70.00
2023-04-17T00:55:26.488Z,70.00
2023-04-17T00:57:53.502Z,70.10
2023-04-17T01:00:20.440Z,70.00
2023-04-17T01:02:48.335Z,70.00
2023-04-17T01:05:15.241Z,70.00
2023-04-17T01:07:42.631Z,70.10
2023-04-17T01:10:10.274Z,70.10
2023-04-17T01:12:37.049Z,70.20
2023-04-17T01:15:04.847Z,70.10
2023-04-17T01:17:32.150Z,70.00
2023-04-17T01:19:59.124Z,70.00
2023-04-17T01:22:25.887Z,70.10
2023-04-17T01:24:56.918Z,70.20
2023-04-17T01:27:26.252Z,70.10
2023-04-17T01:29:52.930Z,70.10
2023-04-17T01:32:20.168Z,70.10
2023-04-17T01:34:47.014Z,70.10
2023-04-17T01:37:13.670Z,70.00
2023-04-17T01:39:40.964Z,70.10
2023-04-17T01:42:07.798Z,70.00
2023-04-17T01:44:36.719Z,70.00
2023-04-17T01:47:04.026Z,70.00
2023-04-17T01:49:30.891Z,69.90
2023-04-17T01:51:57.593Z,69.90
2023-04-17T01:54:24.978Z,69.90
2023-04-17T01:56:51.718Z,69.90
2023-04-17T01:59:19.014Z,69.90
2023-04-17T02:01:45.778Z,69.90
2023-04-17T02:04:12.637Z,69.90
2023-04-17T02:06:39.338Z,69.90
2023-04-17T02:09:06.150Z,70.00
2023-04-17T02:11:32.961Z,70.10
2023-04-17T02:13:59.642Z,70.10
2023-04-17T02:16:26.664Z,70.00
2023-04-17T02:18:53.569Z,70.10
2023-04-17T02:21:21.121Z,70.10
2023-04-17T02:23:47.833Z,70.10
2023-04-17T02:26:15.025Z,70.10
2023-04-17T02:28:47.909Z,70.20
2023-04-17T02:31:14.941Z,70.20
2023-04-17T02:33:41.671Z,70.10
2023-04-17T02:36:10.304Z,70.10
2023-04-17T02:38:39.698Z,70.00
2023-04-17T02:41:06.752Z,70.00
2023-04-17T02:43:34.305Z,69.90
2023-04-17T02:46:01.426Z,69.80
2023-04-17T02:48:28.295Z,69.80
2023-04-17T02:50:55.184Z,69.90
2023-04-17T02:53:22.309Z,69.90
2023-04-17T02:55:49.863Z,69.90
2023-04-17T02:58:19.297Z,69.80
2023-04-17T03:00:46.311Z,69.80
2023-04-17T03:03:16.505Z,69.70
2023-04-17T03:05:43.482Z,70.30
2023-04-17T03:08:10.573Z,69.60
2023-04-17T03:10:45.824Z,69.50
2023-04-17T03:13:12.632Z,69.60
2023-04-17T03:15:39.393Z,69.70
2023-04-17T03:18:06.192Z,69.80
2023-04-17T03:20:32.988Z,69.90
2023-04-17T03:22:59.776Z,69.80
2023-04-17T03:25:26.551Z,69.90
2023-04-17T03:27:53.938Z,69.90
2023-04-17T03:30:25.415Z,69.90
2023-04-17T03:32:54.348Z,69.90
2023-04-17T03:35:21.213Z,69.80
2023-04-17T03:37:47.837Z,69.80
2023-04-17T03:40:14.602Z,69.80
2023-04-17T03:42:43.916Z,69.70
2023-04-17T03:45:10.846Z,69.70
2023-04-17T03:47:38.456Z,69.70
2023-04-17T03:50:06.200Z,69.70
2023-04-17T03:52:37.384Z,69.70
2023-04-17T03:55:05.842Z,69.70
2023-04-17T03:57:32.715Z,69.70
2023-04-17T03:59:59.556Z,69.70
2023-04-17T04:02:30.367Z,69.70
2023-04-17T04:04:57.431Z,69.70
2023-04-17T04:07:24.123Z,69.70
2023-04-17T04:09:51.048Z,69.70
2023-04-17T04:12:18.735Z,69.70
2023-04-17T04:14:46.175Z,69.70
2023-04-17T04:17:14.809Z,69.70
2023-04-17T04:19:43.432Z,69.80
2023-04-17T04:22:10.367Z,69.80
2023-04-17T04:24:44.382Z,69.70
2023-04-17T04:27:18.203Z,69.70
2023-04-17T04:29:49.602Z,69.80
2023-04-17T04:32:19.700Z,69.80
2023-04-17T04:34:47.349Z,69.70
2023-04-17T04:37:17.772Z,69.80
2023-04-17T04:39:47.195Z,69.80
2023-04-17T04:42:21.865Z,69.70
2023-04-17T04:44:55.775Z,70.30
2023-04-17T04:47:25.744Z,69.70
2023-04-17T04:49:53.764Z,69.70
2023-04-17T04:52:21.799Z,69.70
2023-04-17T04:54:50.264Z,69.70
2023-04-17T04:57:16.968Z,69.70
2023-04-17T04:59:46.383Z,69.70
2023-04-17T05:02:26.079Z,69.80
2023-04-17T05:04:53.396Z,69.80
2023-04-17T05:07:20.675Z,69.80
2023-04-17T05:09:47.430Z,69.80
2023-04-17T05:12:16.205Z,69.80
2023-04-17T05:14:44.049Z,69.80
2023-04-17T05:17:11.033Z,69.70
2023-04-17T05:19:38.502Z,69.80
2023-04-17T05:22:08.514Z,69.80
2023-04-17T05:24:42.798Z,70.40
2023-04-17T05:27:09.830Z,69.80
2023-04-17T05:29:37.499Z,69.80
2023-04-17T05:32:04.504Z,69.90
2023-04-17T05:34:54.355Z,70.00
2023-04-17T05:37:24.804Z,69.90
2023-04-17T05:39:51.642Z,69.90
2023-04-17T05:42:18.331Z,69.90
2023-04-17T05:44:45.822Z,69.90
2023-04-17T05:47:12.578Z,69.90
2023-04-17T05:49:39.457Z,69.80
2023-04-17T05:52:06.314Z,69.80
2023-04-17T05:54:37.511Z,69.80
2023-04-17T05:57:06.040Z,69.80
2023-04-17T05:59:33.037Z,69.80
2023-04-17T06:01:59.917Z,69.80
2023-04-17T06:04:27.101Z,69.80
2023-04-17T06:06:54.005Z,69.70
2023-04-17T06:09:22.717Z,69.70
2023-04-17T06:11:50.605Z,69.80
2023-04-17T06:14:18.478Z,69.70
2023-04-17T06:16:45.939Z,69.70
2023-04-17T06:19:15.596Z,69.80
2023-04-17T06:21:42.282Z,69.90
2023-04-17T06:24:08.955Z,69.80
2023-04-17T06:26:35.751Z,69.80
2023-04-17T06:29:04.836Z,69.80
2023-04-17T06:31:33.353Z,69.80
2023-04-17T06:34:00.256Z,69.80
2023-04-17T06:36:31.694Z,69.80
2023-04-17T06:39:01.503Z,69.80
2023-04-17T06:41:29.603Z,69.90
2023-04-17T06:43:56.253Z,70.30
2023-04-17T06:46:23.304Z,70.00
2023-04-17T06:48:52.181Z,70.00
2023-04-17T06:51:21.003Z,70.00
2023-04-17T06:53:48.306Z,70.00
2023-04-17T06:56:15.359Z,69.90
2023-04-17T06:58:44.412Z,70.00
2023-04-17T07:01:12.787Z,69.90
2023-04-17T07:03:41.102Z,69.90
2023-04-17T07:06:08.513Z,69.90
2023-04-17T07:08:35.465Z,69.80
2023-04-17T07:11:02.707Z,69.80
2023-04-17T07:13:31.519Z,69.80
2023-04-17T07:15:58.404Z,69.80
2023-04-17T07:18:26.774Z,69.80
2023-04-17T07:20:53.472Z,69.80
2023-04-17T07:23:20.195Z,69.90
2023-04-17T07:25:46.921Z,69.80
2023-04-17T07:28:14.372Z,69.80
2023-04-17T07:30:43.886Z,69.80
2023-04-17T07:33:10.790Z,69.80
2023-04-17T07:35:37.705Z,69.90
2023-04-17T07:38:04.587Z,69.80
2023-04-17T07:40:33.218Z,69.80
2023-04-17T07:42:59.902Z,69.80
2023-04-17T07:45:28.412Z,69.80
2023-04-17T07:47:55.263Z,69.80
2023-04-17T07:50:22.264Z,70.40
2023-04-17T07:52:48.944Z,70.40
2023-04-17T07:55:16.582Z,70.60
2023-04-17T07:57:43.470Z,70.60
2023-04-17T08:00:13.171Z,70.70
2023-04-17T08:02:40.441Z,70.80
2023-04-17T08:05:08.049Z,70.70
2023-04-17T08:07:36.017Z,70.90
2023-04-17T08:10:03.853Z,70.70
2023-04-17T08:12:30.570Z,71.00
2023-04-17T08:14:57.284Z,70.80
2023-04-17T08:17:26.063Z,70.80
2023-04-17T08:19:53.850Z,70.80
2023-04-17T08:22:21.928Z,70.70
2023-04-17T08:24:49.507Z,70.70
2023-04-17T08:27:16.520Z,70.70
2023-04-17T08:29:43.775Z,70.50
2023-04-17T08:32:13.879Z,70.50
2023-04-17T08:34:42.353Z,70.60
2023-04-17T08:37:09.008Z,70.50
2023-04-17T08:39:35.719Z,70.60
2023-04-17T08:42:07.712Z,70.50
2023-04-17T08:44:34.491Z,70.50
2023-04-17T08:47:02.409Z,70.50
2023-04-17T08:49:29.810Z,70.40
2023-04-17T08:51:57.065Z,70.30
2023-04-17T08:54:23.790Z,70.30
2023-04-17T08:56:50.602Z,70.20
2023-04-17T08:59:17.891Z,70.10
2023-04-17T09:02:04.782Z,70.20
2023-04-17T09:04:38.819Z,70.10
2023-04-17T09:07:06.557Z,70.00
2023-04-17T09:09:52.728Z,70.10
2023-04-17T09:12:24.196Z,70.10
2023-04-17T09:14:51.046Z,70.00
2023-04-17T09:17:19.850Z,70.10
2023-04-17T09:20:07.349Z,70.00
2023-04-17T09:22:35.818Z,69.00
2023-04-17T09:25:02.916Z,70.10
2023-04-17T09:27:30.094Z,70.10
2023-04-17T09:30:05.118Z,70.10
2023-04-17T09:32:33.804Z,70.00
2023-04-17T09:35:03.717Z,69.90
2023-04-17T09:37:49.535Z,69.90
2023-04-17T09:40:17.210Z,69.80
2023-04-17T09:43:01.146Z,69.60
2023-04-17T09:45:35.269Z,69.30
2023-04-17T09:48:09.105Z,69.50
2023-04-17T09:50:38.455Z,69.60
2023-04-17T09:53:07.118Z,69.30
2023-04-17T09:55:34.710Z,69.40
2023-04-17T09:58:06.107Z,69.40
2023-04-17T10:00:33.007Z,69.50
2023-04-17T10:03:00.449Z,69.30
2023-04-17T10:05:29.840Z,69.30
2023-04-17T10:07:57.019Z,69.30
2023-04-17T10:10:30.310Z,69.40
2023-04-17T10:13:02.625Z,69.40
2023-04-17T10:15:30.478Z,69.40
2023-04-17T10:18:23.011Z,69.40
2023-04-17T10:20:53.091Z,69.40
2023-04-17T10:23:35.847Z,69.40
2023-04-17T10:26:30.698Z,69.40
2023-04-17T10:28:57.810Z,69.40
2023-04-17T10:32:03.138Z,69.50
2023-04-17T10:34:41.005Z,69.40
2023-04-17T10:37:16.483Z,69.60
2023-04-17T10:39:56.623Z,69.40
2023-04-17T10:42:24.275Z,69.50
2023-04-17T10:44:52.094Z,69.50
2023-04-17T10:47:22.460Z,69.60
2023-04-17T10:49:59.881Z,69.60
2023-04-17T10:52:32.782Z,69.60
2023-04-17T10:55:22.000Z,69.70
2023-04-17T10:57:55.790Z,69.60
2023-04-17T11:00:34.008Z,69.60
2023-04-17T11:03:02.753Z,69.50
2023-04-17T11:05:31.338Z,69.70
2023-04-17T11:07:59.052Z,69.80
2023-04-17T11:10:26.408Z,69.70
2023-04-17T11:12:55.598Z,69.80
2023-04-17T11:15:34.189Z,69.70
2023-04-17T11:18:02.105Z,70.00
2023-04-17T11:20:33.823Z,69.80
2023-04-17T11:23:05.932Z,70.00
2023-04-17T11:25:34.083Z,69.90
2023-04-17T11:28:06.059Z,70.00
2023-04-17T11:30:34.446Z,69.90
2023-04-17T11:33:05.726Z,69.70
2023-04-17T11:35:34.366Z,69.90
2023-04-17T11:38:12.197Z,69.70
2023-04-17T11:40:46.173Z,70.00
2023-04-17T11:43:13.591Z,70.10
2023-04-17T11:45:42.566Z,70.70
2023-04-17T11:48:11.583Z,71.10
2023-04-17T11:50:38.877Z,71.40
2023-04-17T11:53:06.437Z,71.70
2023-04-17T11:55:34.454Z,71.80
2023-04-17T11:58:04.108Z,71.80
2023-04-17T12:00:31.587Z,71.80
2023-04-17T12:03:00.511Z,71.80
2023-04-17T12:05:29.868Z,71.70
2023-04-17T12:08:04.604Z,71.80
2023-04-17T12:10:42.722Z,71.70
2023-04-17T12:13:10.638Z,71.80
2023-04-17T12:15:38.548Z,71.60
2023-04-17T12:18:06.220Z,71.60
2023-04-17T12:20:34.608Z,71.60
2023-04-17T12:23:01.968Z,71.60
2023-04-17T12:25:28.751Z,71.50
2023-04-17T12:27:57.041Z,71.70
2023-04-17T12:30:24.342Z,71.60
2023-04-17T12:32:52.148Z,71.70
2023-04-17T12:35:20.262Z,71.60
2023-04-17T12:37:48.637Z,71.70
2023-04-17T12:40:21.372Z,71.60
2023-04-17T12:42:49.920Z,71.30
2023-04-17T12:45:17.504Z,71.20
2023-04-17T12:47:44.520Z,71.10
2023-04-17T12:50:12.102Z,71.00
2023-04-17T12:52:41.264Z,71.00
2023-04-17T12:55:08.733Z,70.90
2023-04-17T12:57:36.531Z,70.70
2023-04-17T13:00:09.136Z,70.70
2023-04-17T13:02:36.452Z,70.70
2023-04-17T13:05:04.263Z,70.70
2023-04-17T13:07:30.947Z,70.80
2023-04-17T13:09:57.669Z,70.80
2023-04-17T13:12:25.303Z,70.70
2023-04-17T13:14:52.657Z,71.30
2023-04-17T13:17:20.927Z,70.60
2023-04-17T13:19:47.653Z,70.70
2023-04-17T13:22:15.540Z,70.70
2023-04-17T13:24:42.308Z,70.60
2023-04-17T13:27:09.851Z,70.60
2023-04-17T13:29:36.573Z,70.60
2023-04-17T13:32:03.324Z,70.60
2023-04-17T13:34:30.018Z,70.60
2023-04-17T13:36:56.938Z,70.60
2023-04-17T13:39:23.604Z,70.70
2023-04-17T13:41:50.393Z,70.60
2023-04-17T13:44:18.508Z,70.60
2023-04-17T13:46:45.347Z,70.60
2023-04-17T13:49:12.448Z,70.60
2023-04-17T13:51:39.402Z,70.70
2023-04-17T13:54:06.608Z,70.70
2023-04-17T13:56:33.435Z,70.60
2023-04-17T13:59:00.100Z,70.70
2023-04-17T14:01:26.864Z,70.70
2023-04-17T14:03:53.652Z,70.60
2023-04-17T14:06:20.595Z,70.50
2023-04-17T14:08:47.337Z,70.60
2023-04-17T14:11:15.345Z,70.30
2023-04-17T14:13:41.982Z,70.10
2023-04-17T14:16:08.785Z,69.90
2023-04-17T14:18:35.598Z,69.80
2023-04-17T14:21:02.293Z,70.00
2023-04-17T14:23:28.959Z,70.40
2023-04-17T14:25:55.712Z,70.40
2023-04-17T14:28:23.582Z,70.30
2023-04-17T14:30:50.558Z,70.10
2023-04-17T14:33:17.295Z,70.00
2023-04-17T14:35:44.089Z,70.40
2023-04-17T14:38:10.793Z,70.40
2023-04-17T14:40:37.737Z,70.40
2023-04-17T14:43:04.480Z,70.30
2023-04-17T14:45:31.186Z,70.20
2023-04-17T14:47:58.000Z,70.40
2023-04-17T14:50:24.818Z,70.50
2023-04-17T14:52:52.151Z,70.50
2023-04-17T14:55:18.873Z,70.50
2023-04-17T14:57:45.610Z,70.80
2023-04-17T15:00:12.822Z,71.30
2023-04-17T15:02:39.676Z,71.60
2023-04-17T15:05:07.357Z,71.70
2023-04-17T15:07:34.517Z,72.20
2023-04-17T15:10:01.279Z,72.60
2023-04-17T15:12:28.060Z,72.50
2023-04-17T15:14:56.342Z,71.60
2023-04-17T15:17:23.092Z,71.30
2023-04-17T15:19:49.872Z,71.10
2023-04-17T15:22:16.583Z,71.10
2023-04-17T15:24:43.276Z,71.10
2023-04-17T15:27:09.984Z,71.10
2023-04-17T15:29:36.753Z,71.20
2023-04-17T15:32:03.489Z,71.10
2023-04-17T15:34:30.282Z,71.30
2023-04-17T15:36:57.596Z,71.50
2023-04-17T15:39:24.242Z,71.80
2023-04-17T15:41:51.525Z,71.80
2023-04-17T15:44:18.265Z,71.30
2023-04-17T15:46:45.196Z,71.00
2023-04-17T15:49:11.979Z,70.70
2023-04-17T15:51:40.936Z,70.70
2023-04-17T15:54:08.835Z,70.70
2023-04-17T15:56:35.583Z,70.60
2023-04-17T15:59:02.494Z,70.60
2023-04-17T16:01:29.730Z,70.80
2023-04-17T16:03:56.492Z,70.80
2023-04-17T16:06:23.298Z,71.10
2023-04-17T16:08:49.990Z,72.00
2023-04-17T16:11:16.625Z,72.50
2023-04-17T16:13:43.322Z,72.50
2023-04-17T16:16:10.786Z,72.30
2023-04-17T16:18:37.482Z,72.20
2023-04-17T16:21:04.203Z,72.40
2023-04-17T16:23:30.855Z,72.60
2023-04-17T16:25:57.494Z,72.70
2023-04-17T16:28:24.429Z,72.70
2023-04-17T16:30:51.072Z,72.60
2023-04-17T16:33:17.712Z,72.70
2023-04-17T16:35:44.461Z,72.60
2023-04-17T16:38:11.170Z,72.50
2023-04-17T16:40:39.237Z,71.70
2023-04-17T16:43:06.296Z,72.30
2023-04-17T16:45:32.979Z,72.50
2023-04-17T16:47:59.744Z,72.50
2023-04-17T16:50:26.465Z,72.80
2023-04-17T16:52:53.142Z,72.80
2023-04-17T16:55:19.828Z,72.70
2023-04-17T16:57:47.844Z,72.70
2023-04-17T17:00:14.835Z,72.50
2023-04-17T17:02:41.735Z,72.80
2023-04-17T17:05:09.126Z,73.00
2023-04-17T17:07:35.812Z,72.90
2023-04-17T17:10:04.422Z,72.80
2023-04-17T17:12:31.073Z,72.90
2023-04-17T17:14:58.132Z,72.70
2023-04-17T17:17:24.872Z,72.30
2023-04-17T17:19:51.603Z,72.60
2023-04-17T17:22:18.278Z,72.60
2023-04-17T17:24:45.216Z,72.50
2023-04-17T17:27:12.954Z,72.50
2023-04-17T17:29:39.735Z,72.40
2023-04-17T17:32:09.083Z,72.30
2023-04-17T17:34:36.027Z,72.60
2023-04-17T17:37:02.669Z,72.50
2023-04-17T17:39:29.341Z,72.70
2023-04-17T17:41:57.135Z,71.80
2023-04-17T17:44:23.885Z,71.70
2023-04-17T17:46:50.622Z,71.80
2023-04-17T17:49:17.509Z,71.90
2023-04-17T17:51:44.403Z,71.80
2023-04-17T17:54:12.184Z,71.90
2023-04-17T17:56:39.055Z,71.80
2023-04-17T17:59:05.691Z,71.80
2023-04-17T18:01:32.375Z,71.90
2023-04-17T18:03:59.485Z,71.60
2023-04-17T18:06:26.676Z,71.80
2023-04-17T18:08:53.845Z,71.80
2023-04-17T18:11:21.179Z,72.00
2023-04-17T18:13:48.168Z,72.00
2023-04-17T18:16:14.890Z,72.10
2023-04-17T18:18:41.575Z,72.10
2023-04-17T18:21:09.261Z,72.00
2023-04-17T18:23:36.025Z,72.00
2023-04-17T18:26:03.362Z,72.10
2023-04-17T18:28:30.099Z,72.00
2023-04-17T18:30:56.767Z,71.80
2023-04-17T18:33:23.482Z,72.00
2023-04-17T18:35:50.208Z,71.90
2023-04-17T18:38:16.929Z,72.10
2023-04-17T18:40:43.570Z,71.90
2023-04-17T18:43:10.410Z,72.00
2023-04-17T18:45:37.236Z,72.00
2023-04-17T18:48:04.216Z,72.10
2023-04-17T18:50:31.133Z,71.90
2023-04-17T18:52:57.797Z,72.00
2023-04-17T18:55:24.503Z,71.90
2023-04-17T18:57:51.181Z,72.00
2023-04-17T19:00:18.040Z,72.00
2023-04-17T19:02:44.871Z,72.20
2023-04-17T19:05:11.758Z,72.10
2023-04-17T19:07:38.442Z,72.00
2023-04-17T19:10:05.583Z,72.10
2023-04-17T19:12:32.297Z,72.10
2023-04-17T19:14:58.950Z,72.10
2023-04-17T19:17:25.688Z,72.00
2023-04-17T19:19:52.493Z,72.10
2023-04-17T19:22:19.441Z,72.10
2023-04-17T19:24:49.692Z,72.10
2023-04-17T19:27:16.997Z,72.10
2023-04-17T19:29:43.775Z,72.20
2023-04-17T19:32:11.098Z,72.30
2023-04-17T19:34:38.266Z,72.30
2023-04-17T19:37:05.237Z,72.30
2023-04-17T19:39:31.882Z,72.20
2023-04-17T19:41:58.591Z,72.20
2023-04-17T19:44:27.765Z,72.20
2023-04-17T19:46:56.626Z,72.20
2023-04-17T19:49:23.279Z,72.30
2023-04-17T19:51:50.081Z,72.30
2023-04-17T19:54:16.796Z,72.40
2023-04-17T19:56:43.471Z,72.30
2023-04-17T19:59:12.509Z,72.90
2023-04-17T20:01:41.520Z,72.40
2023-04-17T20:04:09.813Z,72.30
2023-04-17T20:06:36.602Z,72.20
2023-04-17T20:09:04.629Z,72.20
2023-04-17T20:11:31.371Z,72.20
2023-04-17T20:13:58.100Z,72.30
2023-04-17T20:16:25.106Z,72.20
2023-04-17T20:18:52.049Z,72.30
2023-04-17T20:21:18.858Z,72.10
2023-04-17T20:23:46.795Z,72.20
2023-04-17T20:26:13.893Z,72.10
2023-04-17T20:28:40.994Z,72.10
2023-04-17T20:31:08.078Z,72.40
2023-04-17T20:33:34.783Z,72.30
2023-04-17T20:36:01.957Z,72.40
2023-04-17T20:38:28.784Z,72.40
2023-04-17T20:40:55.492Z,72.20
2023-04-17T20:43:22.169Z,72.30
2023-04-17T20:45:49.635Z,72.20
2023-04-17T20:48:16.549Z,72.20
2023-04-17T20:50:43.419Z,72.20
2023-04-17T20:53:10.205Z,72.30
2023-04-17T20:55:38.008Z,72.40
2023-04-17T20:58:04.888Z,72.30
2023-04-17T21:00:31.602Z,72.30
2023-04-17T21:02:58.358Z,72.40
2023-04-17T21:05:25.168Z,72.40
2023-04-17T21:07:52.918Z,72.20
2023-04-17T21:10:20.296Z,72.20
2023-04-17T21:12:47.142Z,72.30
2023-04-17T21:15:13.796Z,72.30
2023-04-17T21:17:40.581Z,72.30
2023-04-17T21:20:08.104Z,72.40
2023-04-17T21:22:36.727Z,72.30
2023-04-17T21:25:03.496Z,72.30
2023-04-17T21:27:30.633Z,72.20
2023-04-17T21:29:57.274Z,72.20
2023-04-17T21:32:23.996Z,72.20
2023-04-17T21:34:50.731Z,72.30
2023-04-17T21:37:17.369Z,72.20
2023-04-17T21:39:44.394Z,72.30
2023-04-17T21:42:11.065Z,72.30
2023-04-17T21:44:37.722Z,72.80
2023-04-17T21:47:04.391Z,72.30
2023-04-17T21:49:31.017Z,72.30
2023-04-17T21:51:57.762Z,72.40
2023-04-17T21:54:26.664Z,72.40
2023-04-17T21:56:54.043Z,72.40
2023-04-17T21:59:20.730Z,72.40
2023-04-17T22:01:47.380Z,72.40
2023-04-17T22:04:14.371Z,72.40
2023-04-17T22:06:41.656Z,72.50
2023-04-17T22:09:08.760Z,72.70
2023-04-17T22:11:38.137Z,72.80
2023-04-17T22:14:04.831Z,72.90
2023-04-17T22:16:31.514Z,72.70
2023-04-17T22:18:58.379Z,72.70
2023-04-17T22:21:25.027Z,72.40
2023-04-17T22:23:51.675Z,72.70
2023-04-17T22:26:18.352Z,72.60
2023-04-17T22:28:44.977Z,72.70
2023-04-17T22:31:14.735Z,72.90
2023-04-17T22:33:42.902Z,72.90
2023-04-17T22:36:09.605Z,72.90
2023-04-17T22:38:36.311Z,72.90
2023-04-17T22:41:04.212Z,72.80
2023-04-17T22:43:30.885Z,72.80
2023-04-17T22:45:57.567Z,72.60
2023-04-17T22:48:24.724Z,72.50
2023-04-17T22:50:51.502Z,72.50
2023-04-17T22:53:18.135Z,72.50
2023-04-17T22:55:44.842Z,72.50
2023-04-17T22:58:11.525Z,72.60
2023-04-17T23:00:38.275Z,73.20
2023-04-17T23:03:05.000Z,73.30
2023-04-17T23:05:31.891Z,73.20
2023-04-17T23:07:58.780Z,73.10
2023-04-17T23:10:25.476Z,73.10
2023-04-17T23:12:52.111Z,73.10
2023-04-17T23:15:18.814Z,72.60
2023-04-17T23:17:45.529Z,72.60
2023-04-17T23:20:13.041Z,73.00
2023-04-17T23:22:39.734Z,72.90
2023-04-17T23:25:07.044Z,72.90
2023-04-17T23:27:33.714Z,72.90
2023-04-17T23:30:00.386Z,72.80
2023-04-17T23:32:27.149Z,72.90
2023-04-17T23:34:53.909Z,72.90
2023-04-17T23:37:20.622Z,72.90
2023-04-17T23:39:47.559Z,72.90
2023-04-17T23:42:14.500Z,72.90
2023-04-17T23:44:41.368Z,72.90
2023-04-17T23:47:09.081Z,72.80
2023-04-17T23:49:36.009Z,73.00
2023-04-17T23:52:02.698Z,72.80
2023-04-17T23:54:29.421Z,72.80
2023-04-17T23:56:56.455Z,72.90
2023-04-17T23:59:23.157Z,72.80
